Accueil
METAR-TAF:

METAR-TAF

Aéroports :

Aéroport international de Louxor

Louxor, Égypte

latitude: 25-40N, longitude: 032-42E, altitude: 93 m

Observation

Le bulletin a été fait il y a 1 heure et 35 minutes, à 20:00 UTC
Vent 6 kt de nord
Température 22°C
Humidité 46%
Pression 1014 hPa
Visibilité 10 km ou plus
pas de nuages en-dessous de 1500 mètres et pas de cumulonimbus.

METAR: HELX 202000Z 01006KT CAVOK 22/10 Q1014 NOSIG

Heure: 23:35 (21:35 UTC)

Prévision

Le bulletin a été fait il y a 4 heures et 35 minutes, à 17:00 UTC
Prévision valable du 20 à 18 UTC au 21 à 24 UTC
Vent 6 kt de ouest/nord-ouest
Visibilité 10 km ou plus
pas de nuages en-dessous de 1500 mètres et pas de cumulonimbus.

TAF: HELX 201700Z 2018/2124 30006KT CAVOK

Observations et prévisions météorologiques de plus de 4000 aéroports (messages METAR et TAF).

Les stations disponibles sont représentées par des disques jaunes et rouges sur la carte.

Passer la souris dessus pour voir le nom de la station.

Cliquer dessus pour voir les observations et prévisions météorologiques.

Pour changer de carte: cliquez sur les boutons verts avec une croix noire pour zoomer, sur le bouton vert avec un tiret pour effectuer un zoom arrière, ou sur les flèches vertes pour les cartes adjacentes.


METAR-TAF: